sensor_id;sensor_type;location;lat;lon;timestamp;P1;durP1;ratioP1;P2;durP2;ratioP2
18200;SDS011;9226;47.858;9.594;2022-09-09T00:04:46;3.13;;;1.97;;
18200;SDS011;9226;47.858;9.594;2022-09-09T00:07:42;2.77;;;1.90;;
18200;SDS011;9226;47.858;9.594;2022-09-09T00:10:21;4.30;;;1.80;;
18200;SDS011;9226;47.858;9.594;2022-09-09T00:13:15;3.93;;;2.03;;
18200;SDS011;9226;47.858;9.594;2022-09-09T00:18:41;4.43;;;1.67;;
18200;SDS011;9226;47.858;9.594;2022-09-09T00:21:24;2.50;;;1.60;;
18200;SDS011;9226;47.858;9.594;2022-09-09T00:23:58;3.80;;;1.57;;
18200;SDS011;9226;47.858;9.594;2022-09-09T00:28:57;2.93;;;1.93;;
18200;SDS011;9226;47.858;9.594;2022-09-09T00:31:31;3.93;;;1.80;;
18200;SDS011;9226;47.858;9.594;2022-09-09T00:34:11;4.23;;;1.73;;
18200;SDS011;9226;47.858;9.594;2022-09-09T00:36:48;4.10;;;1.57;;
18200;SDS011;9226;47.858;9.594;2022-09-09T00:39:38;5.97;;;2.03;;
18200;SDS011;9226;47.858;9.594;2022-09-09T00:42:16;2.23;;;1.77;;
18200;SDS011;9226;47.858;9.594;2022-09-09T00:45:05;3.07;;;1.60;;
18200;SDS011;9226;47.858;9.594;2022-09-09T00:47:51;3.47;;;1.90;;
18200;SDS011;9226;47.858;9.594;2022-09-09T00:58:23;5.50;;;1.73;;
18200;SDS011;9226;47.858;9.594;2022-09-09T01:00:53;2.00;;;1.60;;
18200;SDS011;9226;47.858;9.594;2022-09-09T01:03:33;3.37;;;2.00;;
18200;SDS011;9226;47.858;9.594;2022-09-09T01:20:05;7.40;;;2.53;;
18200;SDS011;9226;47.858;9.594;2022-09-09T01:22:48;3.93;;;2.40;;
18200;SDS011;9226;47.858;9.594;2022-09-09T01:28:09;6.93;;;2.30;;
18200;SDS011;9226;47.858;9.594;2022-09-09T01:30:42;7.17;;;1.77;;
18200;SDS011;9226;47.858;9.594;2022-09-09T01:33:10;7.17;;;2.40;;
18200;SDS011;9226;47.858;9.594;2022-09-09T01:35:43;5.80;;;2.60;;
18200;SDS011;9226;47.858;9.594;2022-09-09T01:38:22;3.53;;;2.37;;
18200;SDS011;9226;47.858;9.594;2022-09-09T01:40:49;3.40;;;1.93;;
18200;SDS011;9226;47.858;9.594;2022-09-09T01:43:17;5.10;;;2.20;;
18200;SDS011;9226;47.858;9.594;2022-09-09T01:45:44;4.83;;;2.00;;
18200;SDS011;9226;47.858;9.594;2022-09-09T01:48:14;3.73;;;2.30;;
18200;SDS011;9226;47.858;9.594;2022-09-09T01:50:40;6.10;;;2.50;;
18200;SDS011;9226;47.858;9.594;2022-09-09T01:53:06;5.77;;;2.27;;
18200;SDS011;9226;47.858;9.594;2022-09-09T01:55:33;5.17;;;2.10;;
18200;SDS011;9226;47.858;9.594;2022-09-09T02:00:56;4.47;;;1.97;;
18200;SDS011;9226;47.858;9.594;2022-09-09T02:03:29;3.53;;;2.20;;
18200;SDS011;9226;47.858;9.594;2022-09-09T02:08:36;3.33;;;2.27;;
18200;SDS011;9226;47.858;9.594;2022-09-09T02:13:36;7.73;;;2.67;;
18200;SDS011;9226;47.858;9.594;2022-09-09T02:16:06;5.73;;;2.57;;
18200;SDS011;9226;47.858;9.594;2022-09-09T02:18:48;5.60;;;2.30;;
18200;SDS011;9226;47.858;9.594;2022-09-09T02:21:23;5.37;;;2.00;;
18200;SDS011;9226;47.858;9.594;2022-09-09T02:23:49;5.27;;;2.30;;
18200;SDS011;9226;47.858;9.594;2022-09-09T02:26:18;4.13;;;2.00;;
18200;SDS011;9226;47.858;9.594;2022-09-09T02:28:47;7.77;;;2.43;;
18200;SDS011;9226;47.858;9.594;2022-09-09T02:31:16;5.63;;;2.00;;
18200;SDS011;9226;47.858;9.594;2022-09-09T02:33:51;4.60;;;2.20;;
18200;SDS011;9226;47.858;9.594;2022-09-09T02:36:20;5.73;;;2.13;;
18200;SDS011;9226;47.858;9.594;2022-09-09T02:38:50;8.73;;;2.07;;
18200;SDS011;9226;47.858;9.594;2022-09-09T02:41:26;4.27;;;2.20;;
18200;SDS011;9226;47.858;9.594;2022-09-09T02:43:59;5.37;;;2.30;;
18200;SDS011;9226;47.858;9.594;2022-09-09T02:56:55;5.43;;;2.10;;
18200;SDS011;9226;47.858;9.594;2022-09-09T02:59:28;5.37;;;2.13;;
18200;SDS011;9226;47.858;9.594;2022-09-09T03:01:55;5.13;;;2.10;;
18200;SDS011;9226;47.858;9.594;2022-09-09T03:04:21;4.27;;;2.20;;
18200;SDS011;9226;47.858;9.594;2022-09-09T03:06:46;4.00;;;2.27;;
18200;SDS011;9226;47.858;9.594;2022-09-09T03:09:12;4.60;;;2.23;;
18200;SDS011;9226;47.858;9.594;2022-09-09T03:11:38;3.27;;;2.30;;
18200;SDS011;9226;47.858;9.594;2022-09-09T03:14:03;7.40;;;2.20;;
18200;SDS011;9226;47.858;9.594;2022-09-09T03:16:29;4.47;;;2.17;;
18200;SDS011;9226;47.858;9.594;2022-09-09T03:18:55;4.90;;;2.40;;
18200;SDS011;9226;47.858;9.594;2022-09-09T03:21:20;2.67;;;1.90;;
18200;SDS011;9226;47.858;9.594;2022-09-09T03:23:46;3.53;;;2.20;;
18200;SDS011;9226;47.858;9.594;2022-09-09T03:26:12;4.73;;;2.40;;
18200;SDS011;9226;47.858;9.594;2022-09-09T03:28:40;2.57;;;1.93;;
18200;SDS011;9226;47.858;9.594;2022-09-09T03:31:06;4.97;;;2.27;;
18200;SDS011;9226;47.858;9.594;2022-09-09T03:33:38;7.40;;;2.63;;
18200;SDS011;9226;47.858;9.594;2022-09-09T03:36:04;4.63;;;2.30;;
18200;SDS011;9226;47.858;9.594;2022-09-09T03:38:30;8.47;;;2.80;;
18200;SDS011;9226;47.858;9.594;2022-09-09T03:40:57;2.83;;;2.00;;
18200;SDS011;9226;47.858;9.594;2022-09-09T03:43:23;9.27;;;3.10;;
18200;SDS011;9226;47.858;9.594;2022-09-09T03:45:49;3.93;;;2.27;;
18200;SDS011;9226;47.858;9.594;2022-09-09T03:48:16;3.83;;;2.20;;
18200;SDS011;9226;47.858;9.594;2022-09-09T03:50:49;4.93;;;2.40;;
18200;SDS011;9226;47.858;9.594;2022-09-09T03:53:18;5.33;;;2.50;;
18200;SDS011;9226;47.858;9.594;2022-09-09T03:55:46;3.47;;;2.30;;
18200;SDS011;9226;47.858;9.594;2022-09-09T03:58:13;3.87;;;2.10;;
18200;SDS011;9226;47.858;9.594;2022-09-09T04:00:39;3.93;;;2.60;;
18200;SDS011;9226;47.858;9.594;2022-09-09T04:03:07;4.10;;;2.73;;
18200;SDS011;9226;47.858;9.594;2022-09-09T04:05:34;7.17;;;2.57;;
18200;SDS011;9226;47.858;9.594;2022-09-09T04:07:59;4.33;;;2.63;;
18200;SDS011;9226;47.858;9.594;2022-09-09T04:10:25;5.17;;;2.50;;
18200;SDS011;9226;47.858;9.594;2022-09-09T04:12:51;4.17;;;2.33;;
18200;SDS011;9226;47.858;9.594;2022-09-09T04:15:17;4.93;;;2.70;;
18200;SDS011;9226;47.858;9.594;2022-09-09T04:17:43;3.43;;;2.40;;
18200;SDS011;9226;47.858;9.594;2022-09-09T04:20:08;8.03;;;2.60;;
18200;SDS011;9226;47.858;9.594;2022-09-09T04:22:37;4.17;;;2.50;;
18200;SDS011;9226;47.858;9.594;2022-09-09T04:25:04;3.40;;;2.10;;
18200;SDS011;9226;47.858;9.594;2022-09-09T04:27:31;4.47;;;2.53;;
18200;SDS011;9226;47.858;9.594;2022-09-09T04:29:56;7.00;;;2.50;;
18200;SDS011;9226;47.858;9.594;2022-09-09T04:32:22;5.03;;;2.30;;
18200;SDS011;9226;47.858;9.594;2022-09-09T04:34:48;4.23;;;2.37;;
18200;SDS011;9226;47.858;9.594;2022-09-09T04:37:14;6.00;;;2.33;;
18200;SDS011;9226;47.858;9.594;2022-09-09T04:39:39;8.00;;;2.70;;
18200;SDS011;9226;47.858;9.594;2022-09-09T04:42:05;5.50;;;2.80;;
18200;SDS011;9226;47.858;9.594;2022-09-09T04:44:30;6.17;;;2.43;;
18200;SDS011;9226;47.858;9.594;2022-09-09T04:46:56;5.60;;;2.50;;
18200;SDS011;9226;47.858;9.594;2022-09-09T04:49:21;5.27;;;2.63;;
18200;SDS011;9226;47.858;9.594;2022-09-09T04:51:48;6.00;;;2.63;;
18200;SDS011;9226;47.858;9.594;2022-09-09T04:54:14;8.43;;;2.83;;
18200;SDS011;9226;47.858;9.594;2022-09-09T04:56:39;4.67;;;2.40;;
18200;SDS011;9226;47.858;9.594;2022-09-09T04:59:06;9.27;;;2.37;;
18200;SDS011;9226;47.858;9.594;2022-09-09T05:01:32;2.73;;;2.20;;
18200;SDS011;9226;47.858;9.594;2022-09-09T05:03:57;4.40;;;2.40;;
18200;SDS011;9226;47.858;9.594;2022-09-09T05:06:23;5.13;;;2.43;;
18200;SDS011;9226;47.858;9.594;2022-09-09T05:08:49;4.77;;;2.50;;
18200;SDS011;9226;47.858;9.594;2022-09-09T05:11:15;8.23;;;2.53;;
18200;SDS011;9226;47.858;9.594;2022-09-09T05:13:48;5.23;;;2.40;;
18200;SDS011;9226;47.858;9.594;2022-09-09T05:16:15;6.83;;;2.47;;
18200;SDS011;9226;47.858;9.594;2022-09-09T05:18:42;6.40;;;2.50;;
18200;SDS011;9226;47.858;9.594;2022-09-09T05:21:08;7.00;;;2.57;;
18200;SDS011;9226;47.858;9.594;2022-09-09T05:23:34;6.17;;;2.87;;
18200;SDS011;9226;47.858;9.594;2022-09-09T05:26:00;4.70;;;2.30;;
18200;SDS011;9226;47.858;9.594;2022-09-09T05:28:26;9.83;;;2.53;;
18200;SDS011;9226;47.858;9.594;2022-09-09T05:30:56;6.57;;;2.30;;
18200;SDS011;9226;47.858;9.594;2022-09-09T05:33:25;4.73;;;2.07;;
18200;SDS011;9226;47.858;9.594;2022-09-09T05:35:58;2.50;;;1.70;;
18200;SDS011;9226;47.858;9.594;2022-09-09T05:38:26;2.47;;;1.80;;
18200;SDS011;9226;47.858;9.594;2022-09-09T05:40:52;3.33;;;1.43;;
18200;SDS011;9226;47.858;9.594;2022-09-09T05:43:19;6.00;;;1.80;;
18200;SDS011;9226;47.858;9.594;2022-09-09T05:45:45;8.53;;;2.53;;
18200;SDS011;9226;47.858;9.594;2022-09-09T05:48:12;6.03;;;2.20;;
18200;SDS011;9226;47.858;9.594;2022-09-09T05:50:41;4.03;;;2.40;;
18200;SDS011;9226;47.858;9.594;2022-09-09T05:53:07;6.77;;;2.40;;
18200;SDS011;9226;47.858;9.594;2022-09-09T05:55:33;4.70;;;2.30;;
18200;SDS011;9226;47.858;9.594;2022-09-09T05:57:59;13.30;;;2.70;;
18200;SDS011;9226;47.858;9.594;2022-09-09T06:00:24;4.93;;;2.83;;
18200;SDS011;9226;47.858;9.594;2022-09-09T06:02:51;4.07;;;2.30;;
18200;SDS011;9226;47.858;9.594;2022-09-09T06:05:17;4.40;;;2.30;;
18200;SDS011;9226;47.858;9.594;2022-09-09T06:07:43;5.03;;;2.27;;
18200;SDS011;9226;47.858;9.594;2022-09-09T06:10:10;4.63;;;2.60;;
18200;SDS011;9226;47.858;9.594;2022-09-09T06:12:38;6.23;;;2.33;;
18200;SDS011;9226;47.858;9.594;2022-09-09T06:15:04;8.20;;;2.47;;
18200;SDS011;9226;47.858;9.594;2022-09-09T06:17:30;9.10;;;3.33;;
18200;SDS011;9226;47.858;9.594;2022-09-09T06:19:56;8.67;;;2.53;;
18200;SDS011;9226;47.858;9.594;2022-09-09T06:22:22;5.93;;;2.40;;
18200;SDS011;9226;47.858;9.594;2022-09-09T06:24:47;6.43;;;2.13;;
18200;SDS011;9226;47.858;9.594;2022-09-09T06:27:13;3.80;;;2.37;;
18200;SDS011;9226;47.858;9.594;2022-09-09T06:29:38;4.60;;;2.40;;
18200;SDS011;9226;47.858;9.594;2022-09-09T06:32:04;4.20;;;2.60;;
18200;SDS011;9226;47.858;9.594;2022-09-09T06:34:29;3.67;;;2.07;;
18200;SDS011;9226;47.858;9.594;2022-09-09T06:36:55;6.13;;;2.30;;
18200;SDS011;9226;47.858;9.594;2022-09-09T06:39:22;3.03;;;2.27;;
18200;SDS011;9226;47.858;9.594;2022-09-09T06:41:48;5.97;;;2.97;;
18200;SDS011;9226;47.858;9.594;2022-09-09T06:44:14;3.70;;;1.93;;
18200;SDS011;9226;47.858;9.594;2022-09-09T06:46:40;4.30;;;1.90;;
18200;SDS011;9226;47.858;9.594;2022-09-09T06:49:07;5.17;;;2.07;;
18200;SDS011;9226;47.858;9.594;2022-09-09T06:51:34;2.87;;;1.70;;
18200;SDS011;9226;47.858;9.594;2022-09-09T06:54:01;8.03;;;1.70;;
18200;SDS011;9226;47.858;9.594;2022-09-09T06:56:28;3.20;;;1.53;;
18200;SDS011;9226;47.858;9.594;2022-09-09T06:58:56;4.13;;;1.60;;
18200;SDS011;9226;47.858;9.594;2022-09-09T07:01:27;3.47;;;1.77;;
18200;SDS011;9226;47.858;9.594;2022-09-09T07:03:55;4.10;;;2.10;;
18200;SDS011;9226;47.858;9.594;2022-09-09T07:06:27;3.77;;;2.30;;
18200;SDS011;9226;47.858;9.594;2022-09-09T07:08:55;10.03;;;2.60;;
18200;SDS011;9226;47.858;9.594;2022-09-09T07:11:25;2.77;;;2.17;;
18200;SDS011;9226;47.858;9.594;2022-09-09T07:13:54;6.40;;;2.60;;
18200;SDS011;9226;47.858;9.594;2022-09-09T07:16:22;8.03;;;2.77;;
18200;SDS011;9226;47.858;9.594;2022-09-09T07:18:52;4.37;;;2.50;;
18200;SDS011;9226;47.858;9.594;2022-09-09T07:21:22;6.43;;;2.80;;
18200;SDS011;9226;47.858;9.594;2022-09-09T07:23:49;5.93;;;2.60;;
18200;SDS011;9226;47.858;9.594;2022-09-09T07:26:16;5.00;;;2.40;;
18200;SDS011;9226;47.858;9.594;2022-09-09T07:28:44;4.70;;;2.37;;
18200;SDS011;9226;47.858;9.594;2022-09-09T07:31:13;4.90;;;2.23;;
18200;SDS011;9226;47.858;9.594;2022-09-09T07:33:41;5.77;;;2.30;;
18200;SDS011;9226;47.858;9.594;2022-09-09T07:36:14;4.30;;;2.30;;
18200;SDS011;9226;47.858;9.594;2022-09-09T07:38:57;6.40;;;2.30;;
18200;SDS011;9226;47.858;9.594;2022-09-09T07:41:34;5.70;;;2.17;;
18200;SDS011;9226;47.858;9.594;2022-09-09T07:44:05;4.73;;;2.30;;
18200;SDS011;9226;47.858;9.594;2022-09-09T07:46:32;4.87;;;2.10;;
18200;SDS011;9226;47.858;9.594;2022-09-09T07:48:59;5.43;;;2.13;;
18200;SDS011;9226;47.858;9.594;2022-09-09T07:51:27;5.60;;;1.70;;
18200;SDS011;9226;47.858;9.594;2022-09-09T07:53:55;4.63;;;2.07;;
18200;SDS011;9226;47.858;9.594;2022-09-09T07:56:25;3.97;;;2.20;;
18200;SDS011;9226;47.858;9.594;2022-09-09T07:58:52;5.23;;;2.47;;
18200;SDS011;9226;47.858;9.594;2022-09-09T08:01:23;5.90;;;2.23;;
18200;SDS011;9226;47.858;9.594;2022-09-09T08:03:57;4.93;;;2.53;;
18200;SDS011;9226;47.858;9.594;2022-09-09T08:06:28;5.93;;;2.50;;
18200;SDS011;9226;47.858;9.594;2022-09-09T08:08:57;3.70;;;2.40;;
18200;SDS011;9226;47.858;9.594;2022-09-09T08:11:23;7.23;;;1.93;;
18200;SDS011;9226;47.858;9.594;2022-09-09T08:13:50;6.30;;;2.00;;
18200;SDS011;9226;47.858;9.594;2022-09-09T08:16:17;4.33;;;1.80;;
18200;SDS011;9226;47.858;9.594;2022-09-09T08:18:48;4.43;;;1.90;;
18200;SDS011;9226;47.858;9.594;2022-09-09T08:21:18;3.40;;;1.97;;
18200;SDS011;9226;47.858;9.594;2022-09-09T08:23:50;4.20;;;2.03;;
18200;SDS011;9226;47.858;9.594;2022-09-09T08:26:20;2.77;;;1.63;;
18200;SDS011;9226;47.858;9.594;2022-09-09T08:28:51;4.20;;;2.00;;
18200;SDS011;9226;47.858;9.594;2022-09-09T08:31:19;4.10;;;2.20;;
18200;SDS011;9226;47.858;9.594;2022-09-09T08:33:46;2.40;;;1.80;;
18200;SDS011;9226;47.858;9.594;2022-09-09T08:36:16;4.30;;;2.00;;
18200;SDS011;9226;47.858;9.594;2022-09-09T08:38:43;6.90;;;2.47;;
18200;SDS011;9226;47.858;9.594;2022-09-09T08:46:50;3.13;;;1.97;;
18200;SDS011;9226;47.858;9.594;2022-09-09T08:52:13;2.63;;;1.90;;
18200;SDS011;9226;47.858;9.594;2022-09-09T08:54:44;5.57;;;2.20;;
18200;SDS011;9226;47.858;9.594;2022-09-09T08:57:14;4.00;;;2.07;;
18200;SDS011;9226;47.858;9.594;2022-09-09T08:59:46;4.57;;;2.33;;
18200;SDS011;9226;47.858;9.594;2022-09-09T09:05:23;5.50;;;2.00;;
18200;SDS011;9226;47.858;9.594;2022-09-09T09:10:51;4.83;;;2.03;;
18200;SDS011;9226;47.858;9.594;2022-09-09T09:13:35;4.73;;;2.00;;
18200;SDS011;9226;47.858;9.594;2022-09-09T09:16:51;3.57;;;2.30;;
18200;SDS011;9226;47.858;9.594;2022-09-09T09:19:00;4.30;;;2.00;;
18200;SDS011;9226;47.858;9.594;2022-09-09T09:27:21;2.93;;;1.60;;
18200;SDS011;9226;47.858;9.594;2022-09-09T09:29:56;2.60;;;1.80;;
18200;SDS011;9226;47.858;9.594;2022-09-09T09:32:23;6.57;;;2.20;;
18200;SDS011;9226;47.858;9.594;2022-09-09T09:34:51;4.80;;;2.20;;
18200;SDS011;9226;47.858;9.594;2022-09-09T09:37:31;4.17;;;1.63;;
18200;SDS011;9226;47.858;9.594;2022-09-09T09:40:09;3.57;;;1.60;;
18200;SDS011;9226;47.858;9.594;2022-09-09T09:42:37;4.27;;;1.67;;
18200;SDS011;9226;47.858;9.594;2022-09-09T09:45:16;3.63;;;1.87;;
18200;SDS011;9226;47.858;9.594;2022-09-09T09:48:01;2.20;;;1.50;;
18200;SDS011;9226;47.858;9.594;2022-09-09T09:50:31;4.00;;;1.50;;
18200;SDS011;9226;47.858;9.594;2022-09-09T09:53:04;3.27;;;1.47;;
18200;SDS011;9226;47.858;9.594;2022-09-09T09:55:32;3.00;;;1.80;;
18200;SDS011;9226;47.858;9.594;2022-09-09T09:58:06;7.20;;;2.10;;
18200;SDS011;9226;47.858;9.594;2022-09-09T10:00:32;3.33;;;1.57;;
18200;SDS011;9226;47.858;9.594;2022-09-09T10:03:00;6.60;;;1.60;;
18200;SDS011;9226;47.858;9.594;2022-09-09T10:05:27;3.10;;;1.57;;
18200;SDS011;9226;47.858;9.594;2022-09-09T10:08:04;4.73;;;1.37;;
18200;SDS011;9226;47.858;9.594;2022-09-09T10:19:01;3.50;;;2.00;;
18200;SDS011;9226;47.858;9.594;2022-09-09T10:35:24;3.73;;;1.20;;
18200;SDS011;9226;47.858;9.594;2022-09-09T10:46:12;5.80;;;1.30;;
18200;SDS011;9226;47.858;9.594;2022-09-09T10:56:55;4.97;;;1.30;;
18200;SDS011;9226;47.858;9.594;2022-09-09T10:59:45;2.13;;;1.20;;
18200;SDS011;9226;47.858;9.594;2022-09-09T11:02:24;2.93;;;1.20;;
18200;SDS011;9226;47.858;9.594;2022-09-09T11:05:01;1.37;;;0.97;;
18200;SDS011;9226;47.858;9.594;2022-09-09T11:07:39;1.90;;;1.20;;
18200;SDS011;9226;47.858;9.594;2022-09-09T11:12:45;3.57;;;1.43;;
18200;SDS011;9226;47.858;9.594;2022-09-09T11:15:15;4.83;;;1.33;;
18200;SDS011;9226;47.858;9.594;2022-09-09T11:17:56;4.27;;;1.83;;
18200;SDS011;9226;47.858;9.594;2022-09-09T11:20:26;1.97;;;1.07;;
18200;SDS011;9226;47.858;9.594;2022-09-09T11:22:56;1.73;;;1.10;;
18200;SDS011;9226;47.858;9.594;2022-09-09T11:25:35;4.33;;;1.20;;
18200;SDS011;9226;47.858;9.594;2022-09-09T11:28:22;2.60;;;1.13;;
18200;SDS011;9226;47.858;9.594;2022-09-09T11:42:20;1.97;;;1.07;;
18200;SDS011;9226;47.858;9.594;2022-09-09T11:44:48;1.87;;;1.10;;
18200;SDS011;9226;47.858;9.594;2022-09-09T11:47:25;2.07;;;1.00;;
18200;SDS011;9226;47.858;9.594;2022-09-09T11:49:55;1.67;;;1.00;;
18200;SDS011;9226;47.858;9.594;2022-09-09T11:52:39;0.90;;;0.80;;
18200;SDS011;9226;47.858;9.594;2022-09-09T11:55:09;3.20;;;1.27;;
18200;SDS011;9226;47.858;9.594;2022-09-09T11:57:37;2.83;;;1.10;;
18200;SDS011;9226;47.858;9.594;2022-09-09T12:00:04;3.93;;;1.00;;
18200;SDS011;9226;47.858;9.594;2022-09-09T12:02:30;3.70;;;1.00;;
18200;SDS011;9226;47.858;9.594;2022-09-09T12:05:10;2.10;;;0.90;;
18200;SDS011;9226;47.858;9.594;2022-09-09T12:07:40;3.70;;;1.10;;
18200;SDS011;9226;47.858;9.594;2022-09-09T12:12:49;3.63;;;1.37;;
18200;SDS011;9226;47.858;9.594;2022-09-09T12:31:07;2.40;;;0.93;;
18200;SDS011;9226;47.858;9.594;2022-09-09T12:33:43;2.90;;;0.90;;
18200;SDS011;9226;47.858;9.594;2022-09-09T12:36:14;4.40;;;0.90;;
18200;SDS011;9226;47.858;9.594;2022-09-09T12:38:44;1.60;;;0.87;;
18200;SDS011;9226;47.858;9.594;2022-09-09T12:41:23;3.33;;;1.00;;
18200;SDS011;9226;47.858;9.594;2022-09-09T12:43:51;1.87;;;0.87;;
18200;SDS011;9226;47.858;9.594;2022-09-09T12:46:35;2.10;;;0.90;;
18200;SDS011;9226;47.858;9.594;2022-09-09T12:49:05;2.13;;;1.00;;
18200;SDS011;9226;47.858;9.594;2022-09-09T12:52:05;2.93;;;1.00;;
18200;SDS011;9226;47.858;9.594;2022-09-09T12:54:35;3.23;;;1.00;;
18200;SDS011;9226;47.858;9.594;2022-09-09T12:57:03;2.50;;;0.90;;
18200;SDS011;9226;47.858;9.594;2022-09-09T12:59:36;1.63;;;0.93;;
18200;SDS011;9226;47.858;9.594;2022-09-09T13:02:25;1.23;;;0.90;;
18200;SDS011;9226;47.858;9.594;2022-09-09T13:04:51;3.57;;;0.83;;
18200;SDS011;9226;47.858;9.594;2022-09-09T13:07:18;1.20;;;0.83;;
18200;SDS011;9226;47.858;9.594;2022-09-09T13:09:45;1.90;;;0.80;;
18200;SDS011;9226;47.858;9.594;2022-09-09T13:12:29;1.73;;;0.80;;
18200;SDS011;9226;47.858;9.594;2022-09-09T13:14:55;2.70;;;0.90;;
18200;SDS011;9226;47.858;9.594;2022-09-09T13:17:25;1.57;;;0.90;;
18200;SDS011;9226;47.858;9.594;2022-09-09T13:19:56;1.47;;;0.90;;
18200;SDS011;9226;47.858;9.594;2022-09-09T13:22:31;1.47;;;1.10;;
18200;SDS011;9226;47.858;9.594;2022-09-09T13:25:05;2.20;;;1.03;;
18200;SDS011;9226;47.858;9.594;2022-09-09T13:27:51;1.87;;;1.10;;
18200;SDS011;9226;47.858;9.594;2022-09-09T13:30:19;2.10;;;0.93;;
18200;SDS011;9226;47.858;9.594;2022-09-09T13:38:18;4.90;;;1.07;;
18200;SDS011;9226;47.858;9.594;2022-09-09T13:41:00;2.63;;;0.90;;
18200;SDS011;9226;47.858;9.594;2022-09-09T13:43:30;2.60;;;1.00;;
18200;SDS011;9226;47.858;9.594;2022-09-09T13:46:02;3.63;;;1.00;;
18200;SDS011;9226;47.858;9.594;2022-09-09T13:48:56;1.87;;;0.93;;
18200;SDS011;9226;47.858;9.594;2022-09-09T13:51:30;2.60;;;1.00;;
18200;SDS011;9226;47.858;9.594;2022-09-09T13:53:59;2.13;;;1.00;;
18200;SDS011;9226;47.858;9.594;2022-09-09T13:56:25;1.40;;;1.00;;
18200;SDS011;9226;47.858;9.594;2022-09-09T13:58:51;2.30;;;0.90;;
18200;SDS011;9226;47.858;9.594;2022-09-09T14:01:16;1.47;;;0.87;;
18200;SDS011;9226;47.858;9.594;2022-09-09T14:03:42;0.77;;;0.77;;
18200;SDS011;9226;47.858;9.594;2022-09-09T14:06:08;1.83;;;0.90;;
18200;SDS011;9226;47.858;9.594;2022-09-09T14:08:35;2.80;;;1.20;;
18200;SDS011;9226;47.858;9.594;2022-09-09T14:11:05;2.47;;;1.00;;
18200;SDS011;9226;47.858;9.594;2022-09-09T14:13:31;7.07;;;1.30;;
18200;SDS011;9226;47.858;9.594;2022-09-09T14:15:57;1.80;;;0.83;;
18200;SDS011;9226;47.858;9.594;2022-09-09T14:18:22;2.50;;;1.00;;
18200;SDS011;9226;47.858;9.594;2022-09-09T14:20:50;2.50;;;0.93;;
18200;SDS011;9226;47.858;9.594;2022-09-09T14:23:16;2.80;;;0.90;;
18200;SDS011;9226;47.858;9.594;2022-09-09T14:25:42;2.53;;;1.00;;
18200;SDS011;9226;47.858;9.594;2022-09-09T14:28:09;2.00;;;1.20;;
18200;SDS011;9226;47.858;9.594;2022-09-09T14:30:36;1.13;;;0.90;;
18200;SDS011;9226;47.858;9.594;2022-09-09T14:33:04;2.90;;;1.00;;
18200;SDS011;9226;47.858;9.594;2022-09-09T14:35:29;3.03;;;1.00;;
18200;SDS011;9226;47.858;9.594;2022-09-09T14:37:54;2.20;;;1.13;;
18200;SDS011;9226;47.858;9.594;2022-09-09T14:40:21;3.20;;;1.13;;
18200;SDS011;9226;47.858;9.594;2022-09-09T14:42:46;1.90;;;1.13;;
18200;SDS011;9226;47.858;9.594;2022-09-09T14:45:12;5.00;;;1.30;;
18200;SDS011;9226;47.858;9.594;2022-09-09T14:47:37;5.07;;;1.30;;
18200;SDS011;9226;47.858;9.594;2022-09-09T14:50:03;2.70;;;1.23;;
18200;SDS011;9226;47.858;9.594;2022-09-09T14:52:30;1.73;;;0.93;;
18200;SDS011;9226;47.858;9.594;2022-09-09T14:54:55;2.33;;;1.20;;
18200;SDS011;9226;47.858;9.594;2022-09-09T14:57:21;2.30;;;1.30;;
18200;SDS011;9226;47.858;9.594;2022-09-09T14:59:47;2.37;;;1.20;;
18200;SDS011;9226;47.858;9.594;2022-09-09T15:02:15;3.33;;;1.40;;
18200;SDS011;9226;47.858;9.594;2022-09-09T15:04:41;1.83;;;1.10;;
18200;SDS011;9226;47.858;9.594;2022-09-09T15:07:06;4.63;;;1.17;;
18200;SDS011;9226;47.858;9.594;2022-09-09T15:09:32;2.93;;;1.20;;
18200;SDS011;9226;47.858;9.594;2022-09-09T15:11:57;7.60;;;1.33;;
18200;SDS011;9226;47.858;9.594;2022-09-09T15:14:23;2.07;;;1.20;;
18200;SDS011;9226;47.858;9.594;2022-09-09T15:16:48;1.17;;;1.00;;
18200;SDS011;9226;47.858;9.594;2022-09-09T15:19:13;3.10;;;1.20;;
18200;SDS011;9226;47.858;9.594;2022-09-09T15:21:39;2.17;;;1.20;;
18200;SDS011;9226;47.858;9.594;2022-09-09T15:24:05;2.63;;;1.40;;
18200;SDS011;9226;47.858;9.594;2022-09-09T15:26:33;3.03;;;1.20;;
18200;SDS011;9226;47.858;9.594;2022-09-09T15:28:58;3.00;;;1.00;;
18200;SDS011;9226;47.858;9.594;2022-09-09T15:31:26;2.77;;;1.40;;
18200;SDS011;9226;47.858;9.594;2022-09-09T15:33:57;2.27;;;1.10;;
18200;SDS011;9226;47.858;9.594;2022-09-09T15:36:30;7.17;;;1.30;;
18200;SDS011;9226;47.858;9.594;2022-09-09T15:38:58;3.17;;;1.57;;
18200;SDS011;9226;47.858;9.594;2022-09-09T15:41:25;1.80;;;1.33;;
18200;SDS011;9226;47.858;9.594;2022-09-09T15:43:52;6.90;;;1.50;;
18200;SDS011;9226;47.858;9.594;2022-09-09T15:46:30;2.80;;;1.30;;
18200;SDS011;9226;47.858;9.594;2022-09-09T15:51:31;3.43;;;1.50;;
18200;SDS011;9226;47.858;9.594;2022-09-09T15:53:58;5.33;;;1.77;;
18200;SDS011;9226;47.858;9.594;2022-09-09T15:56:24;2.10;;;1.40;;
18200;SDS011;9226;47.858;9.594;2022-09-09T15:58:52;1.77;;;1.40;;
18200;SDS011;9226;47.858;9.594;2022-09-09T16:01:18;2.47;;;1.53;;
18200;SDS011;9226;47.858;9.594;2022-09-09T16:03:44;1.73;;;1.40;;
18200;SDS011;9226;47.858;9.594;2022-09-09T16:06:15;4.17;;;1.30;;
18200;SDS011;9226;47.858;9.594;2022-09-09T16:08:43;2.50;;;1.37;;
18200;SDS011;9226;47.858;9.594;2022-09-09T16:11:13;1.90;;;1.27;;
18200;SDS011;9226;47.858;9.594;2022-09-09T16:13:41;2.00;;;1.30;;
18200;SDS011;9226;47.858;9.594;2022-09-09T16:16:10;3.60;;;1.70;;
18200;SDS011;9226;47.858;9.594;2022-09-09T16:18:40;3.07;;;1.50;;
18200;SDS011;9226;47.858;9.594;2022-09-09T16:21:08;4.27;;;1.80;;
18200;SDS011;9226;47.858;9.594;2022-09-09T16:23:40;5.17;;;1.67;;
18200;SDS011;9226;47.858;9.594;2022-09-09T16:26:06;2.70;;;1.70;;
18200;SDS011;9226;47.858;9.594;2022-09-09T16:28:33;6.47;;;2.20;;
18200;SDS011;9226;47.858;9.594;2022-09-09T16:30:59;2.47;;;1.70;;
18200;SDS011;9226;47.858;9.594;2022-09-09T16:33:30;7.97;;;1.97;;
18200;SDS011;9226;47.858;9.594;2022-09-09T16:35:55;1.90;;;1.50;;
18200;SDS011;9226;47.858;9.594;2022-09-09T16:38:21;2.03;;;1.53;;
18200;SDS011;9226;47.858;9.594;2022-09-09T16:40:46;5.53;;;1.60;;
18200;SDS011;9226;47.858;9.594;2022-09-09T16:43:15;4.40;;;2.03;;
18200;SDS011;9226;47.858;9.594;2022-09-09T16:45:41;4.00;;;1.60;;
18200;SDS011;9226;47.858;9.594;2022-09-09T16:48:07;3.20;;;1.50;;
18200;SDS011;9226;47.858;9.594;2022-09-09T16:50:33;2.73;;;1.60;;
18200;SDS011;9226;47.858;9.594;2022-09-09T16:52:59;4.57;;;1.60;;
18200;SDS011;9226;47.858;9.594;2022-09-09T16:55:24;2.63;;;1.40;;
18200;SDS011;9226;47.858;9.594;2022-09-09T16:57:51;5.13;;;1.73;;
18200;SDS011;9226;47.858;9.594;2022-09-09T17:00:16;5.80;;;2.00;;
18200;SDS011;9226;47.858;9.594;2022-09-09T17:02:42;2.80;;;1.53;;
18200;SDS011;9226;47.858;9.594;2022-09-09T17:05:10;2.40;;;1.80;;
18200;SDS011;9226;47.858;9.594;2022-09-09T17:07:37;2.20;;;1.80;;
18200;SDS011;9226;47.858;9.594;2022-09-09T17:10:04;6.00;;;2.10;;
18200;SDS011;9226;47.858;9.594;2022-09-09T17:12:30;4.50;;;1.60;;
18200;SDS011;9226;47.858;9.594;2022-09-09T17:14:57;2.77;;;1.67;;
18200;SDS011;9226;47.858;9.594;2022-09-09T17:17:24;3.87;;;1.60;;
18200;SDS011;9226;47.858;9.594;2022-09-09T17:19:49;4.40;;;1.83;;
18200;SDS011;9226;47.858;9.594;2022-09-09T17:22:15;4.57;;;1.77;;
18200;SDS011;9226;47.858;9.594;2022-09-09T17:24:41;5.00;;;1.77;;
18200;SDS011;9226;47.858;9.594;2022-09-09T17:27:06;3.33;;;1.80;;
18200;SDS011;9226;47.858;9.594;2022-09-09T17:29:32;3.50;;;1.93;;
18200;SDS011;9226;47.858;9.594;2022-09-09T17:32:00;3.70;;;1.87;;
18200;SDS011;9226;47.858;9.594;2022-09-09T17:34:26;6.53;;;2.10;;
18200;SDS011;9226;47.858;9.594;2022-09-09T17:36:52;2.67;;;1.80;;
18200;SDS011;9226;47.858;9.594;2022-09-09T17:39:17;3.30;;;2.07;;
18200;SDS011;9226;47.858;9.594;2022-09-09T17:41:43;6.47;;;1.90;;
18200;SDS011;9226;47.858;9.594;2022-09-09T17:44:08;3.00;;;1.90;;
18200;SDS011;9226;47.858;9.594;2022-09-09T17:46:38;4.20;;;1.90;;